sensor_id;sensor_type;location;lat;lon;timestamp;pressure;altitude;pressure_sealevel;temperature;humidity
13604;BME280;24578;48.264;11.436;2023-02-23T00:00:42;95799.16;;;5.29;100.00
13604;BME280;24578;48.264;11.436;2023-02-23T00:03:44;95792.94;;;5.33;100.00
13604;BME280;24578;48.264;11.436;2023-02-23T00:06:45;95799.78;;;5.32;100.00
13604;BME280;24578;48.264;11.436;2023-02-23T00:09:46;95794.03;;;5.29;100.00
13604;BME280;24578;48.264;11.436;2023-02-23T00:12:47;95786.59;;;5.24;100.00
13604;BME280;24578;48.264;11.436;2023-02-23T00:15:50;95795.94;;;5.25;100.00
13604;BME280;24578;48.264;11.436;2023-02-23T00:18:54;95788.25;;;5.25;100.00
13604;BME280;24578;48.264;11.436;2023-02-23T00:21:54;95792.19;;;5.31;100.00
13604;BME280;24578;48.264;11.436;2023-02-23T00:24:58;95790.44;;;5.31;100.00
13604;BME280;24578;48.264;11.436;2023-02-23T00:27:59;95796.25;;;5.35;100.00
13604;BME280;24578;48.264;11.436;2023-02-23T00:31:02;95800.53;;;5.34;100.00
13604;BME280;24578;48.264;11.436;2023-02-23T00:34:04;95799.00;;;5.32;100.00
13604;BME280;24578;48.264;11.436;2023-02-23T00:37:05;95800.47;;;5.36;100.00
13604;BME280;24578;48.264;11.436;2023-02-23T00:40:08;95796.59;;;5.43;100.00
13604;BME280;24578;48.264;11.436;2023-02-23T00:43:13;95800.72;;;5.46;100.00
13604;BME280;24578;48.264;11.436;2023-02-23T00:46:16;95805.84;;;5.46;100.00
13604;BME280;24578;48.264;11.436;2023-02-23T00:49:19;95796.78;;;5.40;100.00
13604;BME280;24578;48.264;11.436;2023-02-23T00:52:20;95802.66;;;5.42;100.00
13604;BME280;24578;48.264;11.436;2023-02-23T00:55:21;95802.59;;;5.44;100.00
13604;BME280;24578;48.264;11.436;2023-02-23T00:58:23;95795.53;;;5.47;100.00
13604;BME280;24578;48.264;11.436;2023-02-23T01:01:25;95799.00;;;5.61;100.00
13604;BME280;24578;48.264;11.436;2023-02-23T01:04:26;95800.09;;;5.57;100.00
13604;BME280;24578;48.264;11.436;2023-02-23T01:07:26;95789.94;;;5.55;100.00
13604;BME280;24578;48.264;11.436;2023-02-23T01:10:27;95795.41;;;5.49;100.00
13604;BME280;24578;48.264;11.436;2023-02-23T01:13:27;95797.91;;;5.51;100.00
13604;BME280;24578;48.264;11.436;2023-02-23T01:16:31;95799.63;;;5.50;100.00
13604;BME280;24578;48.264;11.436;2023-02-23T01:19:32;95798.09;;;5.47;100.00
13604;BME280;24578;48.264;11.436;2023-02-23T01:22:33;95807.91;;;5.55;100.00
13604;BME280;24578;48.264;11.436;2023-02-23T01:25:34;95804.16;;;5.61;100.00
13604;BME280;24578;48.264;11.436;2023-02-23T01:28:34;95808.25;;;5.63;100.00
13604;BME280;24578;48.264;11.436;2023-02-23T01:31:39;95790.03;;;5.68;100.00
13604;BME280;24578;48.264;11.436;2023-02-23T01:34:40;95802.38;;;5.61;100.00
13604;BME280;24578;48.264;11.436;2023-02-23T01:37:42;95801.69;;;5.59;100.00
13604;BME280;24578;48.264;11.436;2023-02-23T01:40:42;95797.91;;;5.65;100.00
13604;BME280;24578;48.264;11.436;2023-02-23T01:43:57;95798.56;;;5.69;100.00
13604;BME280;24578;48.264;11.436;2023-02-23T01:46:59;95795.81;;;5.72;100.00
13604;BME280;24578;48.264;11.436;2023-02-23T01:49:59;95798.84;;;5.78;100.00
13604;BME280;24578;48.264;11.436;2023-02-23T01:53:01;95781.41;;;5.84;100.00
13604;BME280;24578;48.264;11.436;2023-02-23T01:56:08;95786.56;;;5.84;100.00
13604;BME280;24578;48.264;11.436;2023-02-23T01:59:13;95784.69;;;5.86;100.00
13604;BME280;24578;48.264;11.436;2023-02-23T02:02:18;95800.38;;;5.81;100.00
13604;BME280;24578;48.264;11.436;2023-02-23T02:05:20;95795.69;;;5.88;100.00
13604;BME280;24578;48.264;11.436;2023-02-23T02:08:21;95785.44;;;5.88;100.00
13604;BME280;24578;48.264;11.436;2023-02-23T02:11:24;95786.56;;;5.84;100.00
13604;BME280;24578;48.264;11.436;2023-02-23T02:14:35;95781.19;;;5.87;100.00
13604;BME280;24578;48.264;11.436;2023-02-23T02:17:53;95770.75;;;5.90;100.00
13604;BME280;24578;48.264;11.436;2023-02-23T02:25:06;95781.22;;;6.01;100.00
13604;BME280;24578;48.264;11.436;2023-02-23T02:28:29;95782.56;;;5.92;100.00
13604;BME280;24578;48.264;11.436;2023-02-23T02:35:34;95767.81;;;5.96;100.00
13604;BME280;24578;48.264;11.436;2023-02-23T02:39:19;95774.59;;;5.97;100.00
13604;BME280;24578;48.264;11.436;2023-02-23T02:42:35;95766.72;;;5.86;100.00
13604;BME280;24578;48.264;11.436;2023-02-23T02:49:44;95758.09;;;5.87;100.00
13604;BME280;24578;48.264;11.436;2023-02-23T02:53:08;95762.31;;;5.88;100.00
13604;BME280;24578;48.264;11.436;2023-02-23T02:56:31;95757.09;;;5.75;100.00
13604;BME280;24578;48.264;11.436;2023-02-23T03:00:01;95765.63;;;5.75;100.00
13604;BME280;24578;48.264;11.436;2023-02-23T03:03:29;95766.25;;;5.79;100.00
13604;BME280;24578;48.264;11.436;2023-02-23T03:07:20;95764.59;;;5.78;100.00
13604;BME280;24578;48.264;11.436;2023-02-23T03:11:07;95765.44;;;5.78;100.00
13604;BME280;24578;48.264;11.436;2023-02-23T03:19:08;95779.56;;;5.71;100.00
13604;BME280;24578;48.264;11.436;2023-02-23T03:26:50;95773.69;;;5.69;100.00
13604;BME280;24578;48.264;11.436;2023-02-23T03:30:24;95776.47;;;5.66;100.00
13604;BME280;24578;48.264;11.436;2023-02-23T03:37:32;95777.66;;;5.60;100.00
13604;BME280;24578;48.264;11.436;2023-02-23T03:40:55;95774.81;;;5.65;100.00
13604;BME280;24578;48.264;11.436;2023-02-23T03:44:30;95775.63;;;5.66;100.00
13604;BME280;24578;48.264;11.436;2023-02-23T03:47:56;95780.75;;;5.66;100.00
13604;BME280;24578;48.264;11.436;2023-02-23T03:51:21;95780.13;;;5.62;100.00
13604;BME280;24578;48.264;11.436;2023-02-23T03:55:16;95783.88;;;5.56;100.00
13604;BME280;24578;48.264;11.436;2023-02-23T03:58:42;95788.56;;;5.49;100.00
13604;BME280;24578;48.264;11.436;2023-02-23T04:02:07;95783.59;;;5.46;100.00
13604;BME280;24578;48.264;11.436;2023-02-23T04:05:29;95785.53;;;5.43;100.00
13604;BME280;24578;48.264;11.436;2023-02-23T04:08:52;95780.56;;;5.40;100.00
13604;BME280;24578;48.264;11.436;2023-02-23T04:16:07;95788.88;;;5.29;100.00
13604;BME280;24578;48.264;11.436;2023-02-23T04:19:08;95789.91;;;5.26;100.00
13604;BME280;24578;48.264;11.436;2023-02-23T04:22:08;95793.47;;;5.24;100.00
13604;BME280;24578;48.264;11.436;2023-02-23T04:25:10;95783.41;;;5.21;100.00
13604;BME280;24578;48.264;11.436;2023-02-23T04:28:11;95790.53;;;5.15;100.00
13604;BME280;24578;48.264;11.436;2023-02-23T04:31:11;95785.56;;;5.12;100.00
13604;BME280;24578;48.264;11.436;2023-02-23T04:34:12;95774.72;;;5.07;100.00
13604;BME280;24578;48.264;11.436;2023-02-23T04:37:14;95780.88;;;5.05;100.00
13604;BME280;24578;48.264;11.436;2023-02-23T04:40:15;95779.59;;;4.97;100.00
13604;BME280;24578;48.264;11.436;2023-02-23T04:43:15;95778.44;;;4.87;100.00
13604;BME280;24578;48.264;11.436;2023-02-23T04:46:16;95789.06;;;4.81;100.00
13604;BME280;24578;48.264;11.436;2023-02-23T04:49:17;95779.22;;;4.73;100.00
13604;BME280;24578;48.264;11.436;2023-02-23T04:52:17;95788.06;;;4.67;100.00
13604;BME280;24578;48.264;11.436;2023-02-23T04:55:21;95793.47;;;4.63;100.00
13604;BME280;24578;48.264;11.436;2023-02-23T04:58:22;95795.47;;;4.57;100.00
13604;BME280;24578;48.264;11.436;2023-02-23T05:01:22;95800.81;;;4.53;100.00
13604;BME280;24578;48.264;11.436;2023-02-23T05:04:23;95790.78;;;4.50;100.00
13604;BME280;24578;48.264;11.436;2023-02-23T05:07:24;95794.41;;;4.46;100.00
13604;BME280;24578;48.264;11.436;2023-02-23T05:10:24;95800.53;;;4.43;100.00
13604;BME280;24578;48.264;11.436;2023-02-23T05:13:25;95791.91;;;4.44;100.00
13604;BME280;24578;48.264;11.436;2023-02-23T05:16:25;95798.69;;;4.45;100.00
13604;BME280;24578;48.264;11.436;2023-02-23T05:19:26;95795.31;;;4.45;100.00
13604;BME280;24578;48.264;11.436;2023-02-23T05:22:26;95793.34;;;4.50;100.00
13604;BME280;24578;48.264;11.436;2023-02-23T05:25:27;95787.84;;;4.56;100.00
13604;BME280;24578;48.264;11.436;2023-02-23T05:28:28;95789.91;;;4.65;100.00
13604;BME280;24578;48.264;11.436;2023-02-23T05:31:28;95794.41;;;4.76;100.00
13604;BME280;24578;48.264;11.436;2023-02-23T05:34:29;95785.59;;;4.82;100.00
13604;BME280;24578;48.264;11.436;2023-02-23T05:37:29;95797.03;;;4.91;100.00
13604;BME280;24578;48.264;11.436;2023-02-23T05:40:30;95806.84;;;4.98;100.00
13604;BME280;24578;48.264;11.436;2023-02-23T05:43:31;95805.72;;;5.04;100.00
13604;BME280;24578;48.264;11.436;2023-02-23T05:46:31;95809.56;;;5.11;100.00
13604;BME280;24578;48.264;11.436;2023-02-23T05:49:32;95798.50;;;5.11;100.00
13604;BME280;24578;48.264;11.436;2023-02-23T05:52:37;95803.25;;;5.17;100.00
13604;BME280;24578;48.264;11.436;2023-02-23T05:55:38;95803.81;;;5.22;100.00
13604;BME280;24578;48.264;11.436;2023-02-23T05:58:39;95804.94;;;5.32;100.00
13604;BME280;24578;48.264;11.436;2023-02-23T06:01:39;95814.50;;;5.45;100.00
13604;BME280;24578;48.264;11.436;2023-02-23T06:04:40;95811.00;;;5.46;100.00
13604;BME280;24578;48.264;11.436;2023-02-23T06:07:41;95811.84;;;5.46;100.00
13604;BME280;24578;48.264;11.436;2023-02-23T06:10:41;95816.69;;;5.51;100.00
13604;BME280;24578;48.264;11.436;2023-02-23T06:13:42;95808.81;;;5.54;100.00
13604;BME280;24578;48.264;11.436;2023-02-23T06:16:43;95811.09;;;5.59;100.00
13604;BME280;24578;48.264;11.436;2023-02-23T06:19:48;95819.38;;;5.64;100.00
13604;BME280;24578;48.264;11.436;2023-02-23T06:22:48;95817.53;;;5.66;100.00
13604;BME280;24578;48.264;11.436;2023-02-23T06:25:49;95821.66;;;5.69;100.00
13604;BME280;24578;48.264;11.436;2023-02-23T06:28:49;95824.88;;;5.72;100.00
13604;BME280;24578;48.264;11.436;2023-02-23T06:31:50;95829.84;;;5.75;100.00
13604;BME280;24578;48.264;11.436;2023-02-23T06:34:50;95838.72;;;5.84;100.00
13604;BME280;24578;48.264;11.436;2023-02-23T06:37:51;95837.66;;;5.88;100.00
13604;BME280;24578;48.264;11.436;2023-02-23T06:40:52;95850.94;;;5.95;100.00
13604;BME280;24578;48.264;11.436;2023-02-23T06:43:52;95849.84;;;5.99;100.00
13604;BME280;24578;48.264;11.436;2023-02-23T06:46:53;95852.97;;;6.04;100.00
13604;BME280;24578;48.264;11.436;2023-02-23T06:49:53;95856.28;;;6.06;100.00
13604;BME280;24578;48.264;11.436;2023-02-23T06:52:54;95848.28;;;6.11;100.00
13604;BME280;24578;48.264;11.436;2023-02-23T06:55:56;95841.13;;;6.16;100.00
13604;BME280;24578;48.264;11.436;2023-02-23T06:58:57;95846.84;;;6.21;100.00
13604;BME280;24578;48.264;11.436;2023-02-23T07:01:57;95843.34;;;6.22;100.00
13604;BME280;24578;48.264;11.436;2023-02-23T07:04:58;95842.31;;;6.25;100.00
13604;BME280;24578;48.264;11.436;2023-02-23T07:07:59;95849.13;;;6.26;100.00
13604;BME280;24578;48.264;11.436;2023-02-23T07:11:11;95854.06;;;6.29;100.00
13604;BME280;24578;48.264;11.436;2023-02-23T07:14:12;95860.66;;;6.33;100.00
13604;BME280;24578;48.264;11.436;2023-02-23T07:17:13;95857.91;;;6.36;100.00
13604;BME280;24578;48.264;11.436;2023-02-23T07:20:14;95861.03;;;6.42;100.00
13604;BME280;24578;48.264;11.436;2023-02-23T07:23:15;95859.53;;;6.52;100.00
13604;BME280;24578;48.264;11.436;2023-02-23T07:26:16;95859.25;;;6.57;100.00
13604;BME280;24578;48.264;11.436;2023-02-23T07:29:18;95853.72;;;6.63;100.00
13604;BME280;24578;48.264;11.436;2023-02-23T07:32:19;95858.69;;;6.66;100.00
13604;BME280;24578;48.264;11.436;2023-02-23T07:35:20;95862.63;;;6.72;100.00
13604;BME280;24578;48.264;11.436;2023-02-23T07:38:20;95857.19;;;6.76;100.00
13604;BME280;24578;48.264;11.436;2023-02-23T07:41:21;95855.72;;;6.72;100.00
13604;BME280;24578;48.264;11.436;2023-02-23T07:44:21;95857.00;;;6.79;100.00
13604;BME280;24578;48.264;11.436;2023-02-23T07:47:22;95861.03;;;6.83;100.00
13604;BME280;24578;48.264;11.436;2023-02-23T07:50:30;95855.59;;;6.88;100.00
13604;BME280;24578;48.264;11.436;2023-02-23T07:53:30;95854.19;;;6.97;100.00
13604;BME280;24578;48.264;11.436;2023-02-23T07:56:31;95867.47;;;7.04;100.00
13604;BME280;24578;48.264;11.436;2023-02-23T07:59:32;95859.16;;;7.13;100.00
13604;BME280;24578;48.264;11.436;2023-02-23T08:02:33;95865.38;;;7.23;100.00
13604;BME280;24578;48.264;11.436;2023-02-23T08:05:33;95863.13;;;7.31;100.00
13604;BME280;24578;48.264;11.436;2023-02-23T08:08:35;95865.50;;;7.35;100.00
13604;BME280;24578;48.264;11.436;2023-02-23T08:11:36;95862.72;;;7.38;100.00
13604;BME280;24578;48.264;11.436;2023-02-23T08:14:36;95866.53;;;7.45;100.00
13604;BME280;24578;48.264;11.436;2023-02-23T08:17:37;95863.38;;;7.54;100.00
13604;BME280;24578;48.264;11.436;2023-02-23T08:20:38;95863.47;;;7.66;100.00
13604;BME280;24578;48.264;11.436;2023-02-23T08:23:39;95861.09;;;7.88;100.00
13604;BME280;24578;48.264;11.436;2023-02-23T08:26:39;95866.13;;;8.16;100.00
13604;BME280;24578;48.264;11.436;2023-02-23T08:29:40;95860.03;;;8.30;100.00
13604;BME280;24578;48.264;11.436;2023-02-23T08:32:40;95859.28;;;8.53;100.00
13604;BME280;24578;48.264;11.436;2023-02-23T08:35:41;95859.13;;;8.68;100.00
13604;BME280;24578;48.264;11.436;2023-02-23T08:38:41;95860.63;;;8.83;100.00
13604;BME280;24578;48.264;11.436;2023-02-23T08:41:42;95856.53;;;9.05;100.00
13604;BME280;24578;48.264;11.436;2023-02-23T08:44:42;95856.22;;;9.21;100.00
13604;BME280;24578;48.264;11.436;2023-02-23T08:47:44;95859.69;;;9.44;100.00
13604;BME280;24578;48.264;11.436;2023-02-23T08:50:44;95858.84;;;9.68;100.00
13604;BME280;24578;48.264;11.436;2023-02-23T08:53:49;95862.97;;;10.05;100.00
13604;BME280;24578;48.264;11.436;2023-02-23T08:56:49;95855.69;;;10.33;100.00
13604;BME280;24578;48.264;11.436;2023-02-23T08:59:50;95848.28;;;10.62;100.00
13604;BME280;24578;48.264;11.436;2023-02-23T09:02:50;95852.44;;;10.86;100.00
13604;BME280;24578;48.264;11.436;2023-02-23T09:05:51;95849.63;;;11.22;100.00
13604;BME280;24578;48.264;11.436;2023-02-23T09:08:53;95853.13;;;11.53;100.00
13604;BME280;24578;48.264;11.436;2023-02-23T09:11:54;95846.50;;;12.03;100.00
13604;BME280;24578;48.264;11.436;2023-02-23T09:14:55;95847.97;;;12.37;100.00
13604;BME280;24578;48.264;11.436;2023-02-23T09:18:00;95851.94;;;12.00;100.00
13604;BME280;24578;48.264;11.436;2023-02-23T09:21:03;95855.22;;;12.02;100.00
13604;BME280;24578;48.264;11.436;2023-02-23T09:24:07;95852.75;;;12.00;100.00
13604;BME280;24578;48.264;11.436;2023-02-23T09:27:08;95854.66;;;11.98;100.00
13604;BME280;24578;48.264;11.436;2023-02-23T09:30:12;95854.97;;;12.05;100.00
13604;BME280;24578;48.264;11.436;2023-02-23T09:33:18;95857.81;;;12.02;100.00
13604;BME280;24578;48.264;11.436;2023-02-23T09:36:22;95850.88;;;12.12;100.00
13604;BME280;24578;48.264;11.436;2023-02-23T09:39:23;95852.13;;;12.18;100.00
13604;BME280;24578;48.264;11.436;2023-02-23T09:42:36;95851.13;;;12.40;100.00
13604;BME280;24578;48.264;11.436;2023-02-23T09:45:45;95848.44;;;12.61;100.00
13604;BME280;24578;48.264;11.436;2023-02-23T09:48:47;95854.75;;;12.69;100.00
13604;BME280;24578;48.264;11.436;2023-02-23T09:51:53;95861.19;;;12.74;100.00
13604;BME280;24578;48.264;11.436;2023-02-23T09:54:58;95861.91;;;12.36;100.00
13604;BME280;24578;48.264;11.436;2023-02-23T09:58:11;95865.75;;;12.41;100.00
13604;BME280;24578;48.264;11.436;2023-02-23T10:04:51;95866.22;;;11.73;100.00
13604;BME280;24578;48.264;11.436;2023-02-23T10:08:02;95872.53;;;12.01;100.00
13604;BME280;24578;48.264;11.436;2023-02-23T10:24:36;95876.00;;;13.13;100.00
13604;BME280;24578;48.264;11.436;2023-02-23T10:27:45;95855.22;;;12.84;100.00
13604;BME280;24578;48.264;11.436;2023-02-23T10:30:51;95871.47;;;12.86;100.00
13604;BME280;24578;48.264;11.436;2023-02-23T10:33:57;95868.38;;;13.12;100.00
13604;BME280;24578;48.264;11.436;2023-02-23T10:37:05;95862.91;;;13.54;100.00
13604;BME280;24578;48.264;11.436;2023-02-23T10:40:20;95857.56;;;13.26;100.00
13604;BME280;24578;48.264;11.436;2023-02-23T10:43:22;95859.47;;;13.04;100.00
13604;BME280;24578;48.264;11.436;2023-02-23T10:46:35;95860.59;;;13.51;100.00
13604;BME280;24578;48.264;11.436;2023-02-23T10:49:52;95862.38;;;13.40;100.00
13604;BME280;24578;48.264;11.436;2023-02-23T10:52:59;95868.78;;;13.36;100.00
13604;BME280;24578;48.264;11.436;2023-02-23T10:56:16;95872.63;;;12.52;100.00
13604;BME280;24578;48.264;11.436;2023-02-23T10:59:19;95868.53;;;12.49;100.00
13604;BME280;24578;48.264;11.436;2023-02-23T11:02:24;95860.38;;;12.74;100.00
13604;BME280;24578;48.264;11.436;2023-02-23T11:11:32;95856.03;;;13.33;100.00
13604;BME280;24578;48.264;11.436;2023-02-23T11:14:32;95854.41;;;13.32;100.00
13604;BME280;24578;48.264;11.436;2023-02-23T11:17:36;95854.69;;;13.49;100.00
13604;BME280;24578;48.264;11.436;2023-02-23T11:20:39;95848.53;;;13.60;100.00
13604;BME280;24578;48.264;11.436;2023-02-23T11:23:41;95836.66;;;13.47;100.00
13604;BME280;24578;48.264;11.436;2023-02-23T11:26:45;95846.06;;;13.38;100.00
13604;BME280;24578;48.264;11.436;2023-02-23T11:29:49;95834.31;;;13.15;100.00
13604;BME280;24578;48.264;11.436;2023-02-23T11:32:58;95825.00;;;13.02;100.00
13604;BME280;24578;48.264;11.436;2023-02-23T11:36:24;95842.22;;;13.03;100.00
13604;BME280;24578;48.264;11.436;2023-02-23T11:39:26;95828.44;;;13.03;100.00
13604;BME280;24578;48.264;11.436;2023-02-23T11:42:28;95830.84;;;12.65;100.00
13604;BME280;24578;48.264;11.436;2023-02-23T11:45:43;95828.25;;;12.65;100.00
13604;BME280;24578;48.264;11.436;2023-02-23T11:48:59;95821.28;;;12.75;100.00
13604;BME280;24578;48.264;11.436;2023-02-23T11:52:00;95815.97;;;13.36;100.00
13604;BME280;24578;48.264;11.436;2023-02-23T11:55:05;95813.13;;;13.29;100.00
13604;BME280;24578;48.264;11.436;2023-02-23T11:58:29;95805.88;;;13.43;100.00
13604;BME280;24578;48.264;11.436;2023-02-23T12:01:50;95802.84;;;13.37;100.00
13604;BME280;24578;48.264;11.436;2023-02-23T12:05:06;95805.84;;;13.23;100.00
13604;BME280;24578;48.264;11.436;2023-02-23T12:08:32;95796.72;;;12.99;100.00
13604;BME280;24578;48.264;11.436;2023-02-23T12:11:40;95794.38;;;12.86;100.00
13604;BME280;24578;48.264;11.436;2023-02-23T12:14:50;95795.47;;;13.13;100.00
13604;BME280;24578;48.264;11.436;2023-02-23T12:17:59;95799.97;;;13.50;100.00
13604;BME280;24578;48.264;11.436;2023-02-23T12:21:15;95799.56;;;13.16;100.00
13604;BME280;24578;48.264;11.436;2023-02-23T12:24:31;95793.41;;;13.17;100.00
13604;BME280;24578;48.264;11.436;2023-02-23T12:35:00;95788.47;;;13.53;100.00
13604;BME280;24578;48.264;11.436;2023-02-23T12:41:10;95776.09;;;14.12;100.00
13604;BME280;24578;48.264;11.436;2023-02-23T12:44:38;95778.69;;;14.58;99.63
13604;BME280;24578;48.264;11.436;2023-02-23T12:50:54;95780.41;;;14.50;95.98
13604;BME280;24578;48.264;11.436;2023-02-23T12:53:55;95780.78;;;14.55;95.13
13604;BME280;24578;48.264;11.436;2023-02-23T13:00:50;95767.97;;;14.71;91.70
13604;BME280;24578;48.264;11.436;2023-02-23T13:07:54;95751.78;;;15.04;89.50
13604;BME280;24578;48.264;11.436;2023-02-23T13:11:23;95755.84;;;14.80;89.20
13604;BME280;24578;48.264;11.436;2023-02-23T13:21:32;95759.81;;;15.29;86.55
13604;BME280;24578;48.264;11.436;2023-02-23T13:24:38;95757.78;;;15.41;86.03
13604;BME280;24578;48.264;11.436;2023-02-23T13:27:50;95749.22;;;15.30;85.05
13604;BME280;24578;48.264;11.436;2023-02-23T13:30:52;95756.50;;;15.97;81.43
13604;BME280;24578;48.264;11.436;2023-02-23T13:33:56;95748.13;;;15.86;81.63
13604;BME280;24578;48.264;11.436;2023-02-23T13:37:02;95744.53;;;15.34;84.45
13604;BME280;24578;48.264;11.436;2023-02-23T13:43:48;95737.03;;;15.31;84.50
13604;BME280;24578;48.264;11.436;2023-02-23T13:50:35;95740.06;;;15.00;84.94
13604;BME280;24578;48.264;11.436;2023-02-23T13:56:53;95744.16;;;14.56;87.45
13604;BME280;24578;48.264;11.436;2023-02-23T13:59:54;95740.47;;;14.59;86.89
13604;BME280;24578;48.264;11.436;2023-02-23T14:02:55;95736.13;;;14.50;88.91
13604;BME280;24578;48.264;11.436;2023-02-23T14:05:59;95737.19;;;14.39;89.60
13604;BME280;24578;48.264;11.436;2023-02-23T14:09:17;95736.63;;;14.35;89.02
13604;BME280;24578;48.264;11.436;2023-02-23T14:12:37;95735.63;;;14.46;89.15
13604;BME280;24578;48.264;11.436;2023-02-23T14:15:40;95742.53;;;14.37;90.04
13604;BME280;24578;48.264;11.436;2023-02-23T14:22:09;95734.97;;;14.16;91.13
13604;BME280;24578;48.264;11.436;2023-02-23T14:28:32;95737.91;;;14.03;90.59
13604;BME280;24578;48.264;11.436;2023-02-23T14:31:34;95740.38;;;13.77;93.26
13604;BME280;24578;48.264;11.436;2023-02-23T14:34:54;95736.41;;;13.73;94.17
13604;BME280;24578;48.264;11.436;2023-02-23T14:38:00;95731.63;;;13.78;94.12
13604;BME280;24578;48.264;11.436;2023-02-23T14:41:01;95731.06;;;13.74;94.02
13604;BME280;24578;48.264;11.436;2023-02-23T14:47:27;95737.75;;;13.29;96.55
13604;BME280;24578;48.264;11.436;2023-02-23T14:50:33;95731.16;;;13.45;94.76
13604;BME280;24578;48.264;11.436;2023-02-23T14:53:37;95740.88;;;13.43;94.63
13604;BME280;24578;48.264;11.436;2023-02-23T14:56:45;95732.53;;;13.29;93.34
13604;BME280;24578;48.264;11.436;2023-02-23T15:00:05;95734.31;;;13.19;94.21
13604;BME280;24578;48.264;11.436;2023-02-23T15:03:08;95729.44;;;13.06;95.45
13604;BME280;24578;48.264;11.436;2023-02-23T15:06:11;95738.19;;;12.95;95.99
13604;BME280;24578;48.264;11.436;2023-02-23T15:12:36;95729.97;;;12.90;95.14
13604;BME280;24578;48.264;11.436;2023-02-23T15:15:41;95727.81;;;12.95;95.38
13604;BME280;24578;48.264;11.436;2023-02-23T15:22:35;95729.88;;;12.82;96.68
13604;BME280;24578;48.264;11.436;2023-02-23T15:25:39;95721.38;;;12.70;96.05
13604;BME280;24578;48.264;11.436;2023-02-23T15:28:40;95729.16;;;12.60;97.08
13604;BME280;24578;48.264;11.436;2023-02-23T15:31:42;95725.88;;;12.48;98.81
13604;BME280;24578;48.264;11.436;2023-02-23T15:34:53;95725.75;;;12.40;98.93
13604;BME280;24578;48.264;11.436;2023-02-23T15:37:58;95731.88;;;12.39;98.81
13604;BME280;24578;48.264;11.436;2023-02-23T15:41:04;95723.66;;;12.33;98.96
13604;BME280;24578;48.264;11.436;2023-02-23T15:44:14;95725.59;;;12.41;98.19
13604;BME280;24578;48.264;11.436;2023-02-23T15:47:22;95727.63;;;12.28;98.81
13604;BME280;24578;48.264;11.436;2023-02-23T15:50:35;95730.06;;;12.20;99.59
13604;BME280;24578;48.264;11.436;2023-02-23T15:53:40;95728.25;;;12.10;100.00
13604;BME280;24578;48.264;11.436;2023-02-23T15:56:41;95724.38;;;11.95;100.00
13604;BME280;24578;48.264;11.436;2023-02-23T15:59:47;95721.44;;;11.78;100.00
13604;BME280;24578;48.264;11.436;2023-02-23T16:02:48;95727.31;;;11.49;100.00
13604;BME280;24578;48.264;11.436;2023-02-23T16:06:16;95728.41;;;11.47;100.00
13604;BME280;24578;48.264;11.436;2023-02-23T16:12:25;95720.59;;;11.37;100.00
13604;BME280;24578;48.264;11.436;2023-02-23T16:15:36;95736.63;;;11.31;100.00
13604;BME280;24578;48.264;11.436;2023-02-23T16:18:41;95732.28;;;11.31;100.00
13604;BME280;24578;48.264;11.436;2023-02-23T16:21:48;95739.75;;;11.24;100.00
13604;BME280;24578;48.264;11.436;2023-02-23T16:25:02;95730.41;;;11.12;100.00
13604;BME280;24578;48.264;11.436;2023-02-23T16:28:09;95731.09;;;10.93;100.00
13604;BME280;24578;48.264;11.436;2023-02-23T16:31:21;95732.09;;;10.80;100.00
13604;BME280;24578;48.264;11.436;2023-02-23T16:37:27;95734.66;;;10.59;100.00
13604;BME280;24578;48.264;11.436;2023-02-23T16:40:28;95729.06;;;10.43;100.00
13604;BME280;24578;48.264;11.436;2023-02-23T16:43:30;95732.72;;;10.17;100.00
13604;BME280;24578;48.264;11.436;2023-02-23T16:49:53;95735.69;;;9.90;100.00
13604;BME280;24578;48.264;11.436;2023-02-23T16:52:53;95736.19;;;9.72;100.00
13604;BME280;24578;48.264;11.436;2023-02-23T16:55:55;95740.41;;;9.62;100.00
13604;BME280;24578;48.264;11.436;2023-02-23T16:59:15;95740.88;;;9.44;100.00
13604;BME280;24578;48.264;11.436;2023-02-23T17:02:18;95742.03;;;9.29;100.00
13604;BME280;24578;48.264;11.436;2023-02-23T17:05:20;95741.28;;;9.16;100.00
13604;BME280;24578;48.264;11.436;2023-02-23T17:08:22;95748.19;;;9.04;100.00
13604;BME280;24578;48.264;11.436;2023-02-23T17:11:24;95752.72;;;8.89;100.00
13604;BME280;24578;48.264;11.436;2023-02-23T17:14:26;95754.56;;;8.75;100.00
13604;BME280;24578;48.264;11.436;2023-02-23T17:17:27;95758.97;;;8.62;100.00
13604;BME280;24578;48.264;11.436;2023-02-23T17:20:28;95754.88;;;8.46;100.00
13604;BME280;24578;48.264;11.436;2023-02-23T17:23:30;95761.22;;;8.29;100.00
13604;BME280;24578;48.264;11.436;2023-02-23T17:26:50;95759.50;;;8.17;100.00
13604;BME280;24578;48.264;11.436;2023-02-23T17:29:51;95762.34;;;8.01;100.00
13604;BME280;24578;48.264;11.436;2023-02-23T17:32:54;95762.25;;;7.89;100.00
13604;BME280;24578;48.264;11.436;2023-02-23T17:35:55;95761.97;;;7.81;100.00
13604;BME280;24578;48.264;11.436;2023-02-23T17:38:55;95761.03;;;7.69;100.00
13604;BME280;24578;48.264;11.436;2023-02-23T17:41:58;95766.09;;;7.58;100.00
13604;BME280;24578;48.264;11.436;2023-02-23T17:44:59;95767.44;;;7.51;100.00
13604;BME280;24578;48.264;11.436;2023-02-23T17:48:00;95766.28;;;7.42;100.00
13604;BME280;24578;48.264;11.436;2023-02-23T17:51:03;95772.19;;;7.31;100.00
13604;BME280;24578;48.264;11.436;2023-02-23T17:54:04;95777.13;;;7.21;100.00
13604;BME280;24578;48.264;11.436;2023-02-23T17:57:05;95769.06;;;7.13;100.00
13604;BME280;24578;48.264;11.436;2023-02-23T18:00:06;95766.25;;;7.03;100.00
13604;BME280;24578;48.264;11.436;2023-02-23T18:03:08;95777.91;;;6.96;100.00
13604;BME280;24578;48.264;11.436;2023-02-23T18:06:11;95772.31;;;6.89;100.00